Terminal Aerodrome Forecast
Issued by NWS Twin Cities, MN

Home | Current Version | Previous Version | Text Only | Print | Product List | Glossary Off
Versions: 1 2 3 4 5 6 7 8 9 10 11 12 13 14 15 16 17 18 19

000
FTUS43 KMPX 191700
TAFSTC
TAF
KSTC 191738Z 1918/2018 33008KT P6SM VCSH SCT030 SCT200
     FM200000 VRB03KT P6SM SCT200
     FM200600 00000KT 4SM BR SCT002
     FM200800 13002KT 1SM BR SCT001
      TEMPO 2008/2012 1/2SM FG BKN001
     FM201500 14005KT P6SM SCT250=

USA.gov is the U.S. government's official web portal to all federal, state and local government web resources and services.